Time;durP1;ratioP1;P1;durP2;ratioP2;P2;SDS_P1;SDS_P2;PMS_P1;PMS_P2;Temp;Humidity;BMP_temperature;BMP_pressure;BME280_temperature;BME280_humidity;BME280_pressure;Samples;Min_cycle;Max_cycle;Signal;HPM_P1;HPM_P2
2022/05/05 00:01:41;;;;;;;10.13;9.13;;;13.90;99.90;;;;;;5062489;28;20905;-69
2022/05/05 00:04:08;;;;;;;10.27;9.23;;;13.90;99.90;;;;;;5053651;28;20168;-69
2022/05/05 00:06:33;;;;;;;10.37;9.50;;;13.80;99.90;;;;;;5054833;28;20777;-69
2022/05/05 00:08:59;;;;;;;10.33;9.33;;;13.90;99.90;;;;;;5054013;28;20436;-69
2022/05/05 00:14:24;;;;;;;9.20;8.40;;;13.90;99.90;;;;;;5059410;28;20222;-69
2022/05/05 00:17:01;;;;;;;9.07;8.37;;;14.00;99.90;;;;;;5053331;28;20422;-69
2022/05/05 00:19:29;;;;;;;8.40;7.70;;;14.10;99.90;;;;;;5035671;28;20527;-69
2022/05/05 00:21:55;;;;;;;10.57;9.67;;;14.00;99.90;;;;;;5055173;28;20408;-69
2022/05/05 00:24:21;;;;;;;8.60;7.90;;;14.00;99.90;;;;;;5053753;28;20786;-69
2022/05/05 00:26:47;;;;;;;9.43;7.87;;;13.80;99.90;;;;;;5054092;28;20185;-69
2022/05/05 00:29:13;;;;;;;8.10;7.40;;;13.80;99.90;;;;;;5064214;28;20464;-69
2022/05/05 00:31:39;;;;;;;10.13;9.23;;;13.80;99.90;;;;;;5074954;28;20448;-70
2022/05/05 00:34:04;;;;;;;9.97;9.07;;;14.00;99.90;;;;;;5077924;28;20201;-69
2022/05/05 00:36:30;;;;;;;8.10;7.33;;;14.00;99.90;;;;;;5077518;28;20176;-69
2022/05/05 00:38:56;;;;;;;7.60;7.00;;;14.10;99.90;;;;;;5058890;28;20195;-69
2022/05/05 00:41:22;;;;;;;7.90;7.20;;;14.10;99.90;;;;;;5077068;28;20211;-69
2022/05/05 00:43:48;;;;;;;7.90;7.20;;;14.10;99.90;;;;;;5077129;28;20165;-69
2022/05/05 00:46:14;;;;;;;8.00;7.40;;;14.10;99.90;;;;;;5076689;28;20413;-71
2022/05/05 00:48:42;;;;;;;7.70;7.03;;;14.00;99.90;;;;;;5076725;28;20271;-68
2022/05/05 00:51:08;;;;;;;8.37;7.57;;;14.00;99.90;;;;;;5076202;28;20195;-70
2022/05/05 00:53:34;;;;;;;8.33;7.53;;;14.00;99.90;;;;;;5077005;28;20439;-70
2022/05/05 00:56:05;;;;;;;8.60;7.80;;;14.00;99.90;;;;;;5076426;28;20173;-70
2022/05/05 00:58:31;;;;;;;9.40;8.70;;;14.00;99.90;;;;;;5076467;28;20246;-70
2022/05/05 01:01:01;;;;;;;9.20;8.00;;;14.00;99.90;;;;;;5075838;28;20413;-70
2022/05/05 01:03:27;;;;;;;7.70;7.03;;;14.00;99.90;;;;;;5058396;28;20764;-69
2022/05/05 01:05:53;;;;;;;6.90;6.40;;;14.00;99.90;;;;;;5076261;28;20416;-70
2022/05/05 01:08:19;;;;;;;8.00;7.23;;;14.10;99.90;;;;;;5076624;28;20666;-70
2022/05/05 01:10:45;;;;;;;7.97;7.37;;;14.10;99.90;;;;;;5076271;28;20263;-70
2022/05/05 01:13:10;;;;;;;8.30;7.60;;;13.80;99.90;;;;;;5076184;28;20490;-70
2022/05/05 01:15:37;;;;;;;9.63;8.77;;;13.70;99.90;;;;;;5075761;28;20525;-70
2022/05/05 01:18:03;;;;;;;9.97;9.00;;;13.70;99.90;;;;;;5076049;28;20921;-70
2022/05/05 01:20:29;;;;;;;8.13;7.33;;;13.60;99.90;;;;;;5075940;28;20165;-70
2022/05/05 01:22:54;;;;;;;8.60;7.90;;;13.60;99.90;;;;;;5076052;28;20898;-70
2022/05/05 01:28:13;;;;;;;9.60;8.20;;;13.70;99.90;;;;;;5076235;28;20198;-70
2022/05/05 01:30:44;;;;;;;9.80;8.80;;;13.70;99.90;;;;;;5075423;28;20418;-70
2022/05/05 01:33:28;;;;;;;9.00;8.23;;;13.80;99.90;;;;;;5075748;28;20849;-70
2022/05/05 01:35:58;;;;;;;9.83;8.63;;;13.90;99.90;;;;;;5075611;28;20904;-69
2022/05/05 01:38:39;;;;;;;8.93;8.13;;;13.90;99.90;;;;;;5075797;28;20427;-69
2022/05/05 01:41:05;;;;;;;8.40;7.73;;;14.00;99.90;;;;;;5074707;28;20494;-70
2022/05/05 01:43:31;;;;;;;9.20;8.30;;;14.00;99.90;;;;;;5075108;28;20458;-69
2022/05/05 01:45:57;;;;;;;11.90;8.70;;;14.00;99.90;;;;;;5075327;28;20414;-70
2022/05/05 01:48:23;;;;;;;9.73;9.03;;;14.10;99.90;;;;;;5075713;28;20529;-69
2022/05/05 01:50:49;;;;;;;9.03;8.23;;;14.10;99.90;;;;;;5075435;28;20177;-70
2022/05/05 01:53:15;;;;;;;8.73;8.03;;;14.10;99.90;;;;;;5075319;28;20517;-69
2022/05/05 01:55:40;;;;;;;8.57;7.93;;;14.00;99.90;;;;;;5075993;28;20256;-70
2022/05/05 01:58:06;;;;;;;9.90;8.00;;;14.00;99.90;;;;;;5075854;28;20205;-70
2022/05/05 02:00:32;;;;;;;8.40;7.77;;;14.00;99.90;;;;;;5074805;28;20171;-70
2022/05/05 02:02:58;;;;;;;8.90;8.00;;;14.10;99.90;;;;;;5057348;28;20262;-70
2022/05/05 02:05:24;;;;;;;10.23;9.33;;;14.10;99.90;;;;;;5075381;28;20419;-70
2022/05/05 02:07:49;;;;;;;9.03;8.23;;;14.00;99.90;;;;;;5075324;28;20411;-69
2022/05/05 02:10:17;;;;;;;8.60;8.00;;;14.00;99.90;;;;;;5075479;28;20172;-70
2022/05/05 02:12:44;;;;;;;9.60;7.70;;;14.00;99.90;;;;;;5075023;28;20285;-69
2022/05/05 02:15:12;;;;;;;8.60;7.90;;;14.10;99.90;;;;;;5056813;28;20411;-70
2022/05/05 02:17:39;;;;;;;8.30;7.20;;;14.00;99.90;;;;;;5054962;28;20454;-70
2022/05/05 02:20:07;;;;;;;8.10;7.33;;;13.90;99.90;;;;;;5055460;28;20446;-70
2022/05/05 02:22:33;;;;;;;10.47;9.47;;;13.90;99.90;;;;;;5055177;28;20416;-69
2022/05/05 02:24:59;;;;;;;8.60;7.80;;;13.90;99.90;;;;;;5054873;28;20473;-70
2022/05/05 02:27:24;;;;;;;10.03;9.03;;;13.80;99.90;;;;;;5054753;28;20639;-70
2022/05/05 02:29:51;;;;;;;8.20;7.60;;;13.80;99.90;;;;;;5080197;23;20225;-76
2022/05/05 02:32:17;;;;;;;9.27;8.33;;;13.90;99.90;;;;;;5054610;28;20198;-76
2022/05/05 02:34:46;;;;;;;8.23;7.53;;;13.80;99.90;;;;;;5052117;28;20414;-76
2022/05/05 02:39:57;;;;;;;7.47;6.87;;;14.00;99.90;;;;;;5054731;28;20795;-76
2022/05/05 02:42:22;;;;;;;8.53;7.67;;;13.90;99.90;;;;;;5054371;28;20404;-76
2022/05/05 02:44:48;;;;;;;7.73;7.13;;;14.00;99.90;;;;;;5053901;28;20415;-76
2022/05/05 02:47:14;;;;;;;7.53;6.83;;;14.00;99.90;;;;;;5053785;28;20540;-75
2022/05/05 02:49:40;;;;;;;7.63;7.03;;;13.90;99.90;;;;;;5054075;28;20186;-75
2022/05/05 02:52:07;;;;;;;9.53;8.60;;;13.70;99.90;;;;;;5054332;28;20450;-76
2022/05/05 02:54:53;;;;;;;8.33;7.53;;;13.70;99.90;;;;;;5052921;28;20402;-75
2022/05/05 02:57:20;;;;;;;9.10;8.30;;;13.70;99.90;;;;;;5051736;28;20476;-75
2022/05/05 02:59:50;;;;;;;8.00;7.40;;;13.70;99.90;;;;;;5053659;28;20432;-76
2022/05/05 03:02:16;;;;;;;9.40;8.60;;;13.70;99.90;;;;;;5054066;28;20402;-76
2022/05/05 03:04:42;;;;;;;8.70;7.90;;;13.70;99.90;;;;;;5033354;28;20431;-75
2022/05/05 03:07:07;;;;;;;9.07;8.27;;;13.70;99.90;;;;;;5029467;28;20845;-75
2022/05/05 03:09:33;;;;;;;10.10;9.30;;;13.70;99.90;;;;;;5034039;28;20191;-76
2022/05/05 03:11:59;;;;;;;9.23;8.53;;;13.60;99.90;;;;;;5049682;28;20662;-75
2022/05/05 03:14:25;;;;;;;9.57;8.47;;;13.50;99.90;;;;;;5052624;28;20957;-76
2022/05/05 03:16:51;;;;;;;10.07;9.07;;;13.40;99.90;;;;;;5052094;28;20174;-75
2022/05/05 03:19:16;;;;;;;10.60;9.70;;;13.30;99.90;;;;;;5053507;28;20511;-76
2022/05/05 03:21:42;;;;;;;9.70;8.80;;;13.20;99.90;;;;;;5053628;28;20403;-76
2022/05/05 03:24:08;;;;;;;9.67;8.87;;;13.00;99.90;;;;;;5050631;28;20170;-76
2022/05/05 03:26:33;;;;;;;10.80;9.90;;;13.10;99.90;;;;;;5052400;28;20175;-76
2022/05/05 03:28:59;;;;;;;10.37;9.47;;;13.00;99.90;;;;;;5053364;28;20261;-76
2022/05/05 03:31:25;;;;;;;10.53;9.63;;;13.00;99.90;;;;;;5053746;28;20162;-76
2022/05/05 03:33:51;;;;;;;10.27;9.23;;;12.90;99.90;;;;;;5053597;28;20167;-76
2022/05/05 03:36:16;;;;;;;10.87;9.90;;;12.80;99.90;;;;;;5053449;28;20179;-76
2022/05/05 03:38:42;;;;;;;11.40;10.30;;;12.80;99.90;;;;;;5053211;28;20617;-76
2022/05/05 03:41:08;;;;;;;10.40;9.50;;;12.90;99.90;;;;;;5051944;28;20182;-75
2022/05/05 03:43:36;;;;;;;10.20;9.30;;;12.90;99.90;;;;;;5053408;28;20414;-76
2022/05/05 03:46:02;;;;;;;9.90;9.00;;;12.90;99.90;;;;;;5053248;28;20409;-76
2022/05/05 03:48:30;;;;;;;10.80;9.40;;;12.90;99.90;;;;;;5052600;28;20777;-76
2022/05/05 03:50:56;;;;;;;9.93;9.03;;;13.10;99.90;;;;;;5053292;28;20174;-76
2022/05/05 03:53:21;;;;;;;11.53;9.03;;;13.10;99.90;;;;;;5053029;28;20440;-76
2022/05/05 03:55:47;;;;;;;9.17;8.47;;;13.00;99.90;;;;;;5053147;28;20167;-76
2022/05/05 03:58:13;;;;;;;11.30;10.30;;;13.20;99.90;;;;;;5051728;28;20177;-76
2022/05/05 04:00:38;;;;;;;9.90;9.00;;;13.30;99.90;;;;;;5053522;28;20653;-76
2022/05/05 04:05:48;;;;;;;9.70;8.90;;;13.60;99.90;;;;;;5054917;28;20182;-76
2022/05/05 04:08:14;;;;;;;9.30;8.53;;;13.60;99.90;;;;;;5059609;28;20411;-76
2022/05/05 04:10:40;;;;;;;9.87;8.97;;;13.50;99.90;;;;;;5058420;28;20609;-76
2022/05/05 04:13:06;;;;;;;8.47;7.70;;;13.60;99.90;;;;;;5058266;28;20592;-76
2022/05/05 04:15:33;;;;;;;9.50;8.80;;;13.60;99.90;;;;;;5059821;28;20181;-76
2022/05/05 04:17:59;;;;;;;8.53;7.93;;;13.70;99.90;;;;;;5059009;28;20714;-76
2022/05/05 04:20:25;;;;;;;9.63;8.73;;;13.90;99.90;;;;;;5055303;28;20434;-76
2022/05/05 04:22:51;;;;;;;9.73;8.77;;;13.90;99.90;;;;;;5039576;28;20416;-76
2022/05/05 04:25:16;;;;;;;8.87;8.07;;;14.00;99.90;;;;;;5039836;28;20179;-78
2022/05/05 04:27:43;;;;;;;10.27;9.23;;;14.00;99.90;;;;;;5039474;28;20203;-76
2022/05/05 04:30:09;;;;;;;8.97;8.07;;;14.10;99.90;;;;;;5039420;28;20212;-77
2022/05/05 04:32:35;;;;;;;9.00;8.30;;;14.20;99.90;;;;;;5039133;28;20865;-77
2022/05/05 04:35:02;;;;;;;9.20;8.40;;;14.20;99.90;;;;;;5039634;28;20901;-77
2022/05/05 04:37:28;;;;;;;9.00;8.20;;;14.20;99.90;;;;;;5038209;28;20421;-77
2022/05/05 04:39:53;;;;;;;9.83;8.97;;;14.20;99.90;;;;;;5040011;28;20439;-77
2022/05/05 04:42:19;;;;;;;8.70;8.00;;;14.20;99.90;;;;;;5036680;28;20423;-77
2022/05/05 04:44:45;;;;;;;8.63;7.93;;;14.30;99.90;;;;;;5030498;28;20557;-77
2022/05/05 04:47:10;;;;;;;8.03;7.33;;;14.30;99.90;;;;;;5030191;28;20236;-77
2022/05/05 04:49:37;;;;;;;10.43;8.97;;;14.40;99.90;;;;;;5038663;28;20269;-77
2022/05/05 04:52:03;;;;;;;8.40;7.60;;;14.50;99.90;;;;;;5039381;28;20654;-77
2022/05/05 04:54:29;;;;;;;8.50;7.80;;;14.60;99.90;;;;;;5037968;28;20415;-77
2022/05/05 04:56:55;;;;;;;9.17;8.27;;;14.60;99.90;;;;;;5039318;28;20409;-77
2022/05/05 04:59:20;;;;;;;8.40;7.80;;;14.60;99.90;;;;;;5039287;28;20669;-77
2022/05/05 05:01:46;;;;;;;9.63;8.63;;;14.60;99.90;;;;;;5038215;28;20166;-77
2022/05/05 05:04:11;;;;;;;8.90;8.10;;;14.50;99.90;;;;;;5038931;28;20198;-77
2022/05/05 05:06:37;;;;;;;9.77;8.87;;;14.50;99.90;;;;;;5039772;28;20172;-77
2022/05/05 05:09:03;;;;;;;11.10;10.20;;;14.60;99.90;;;;;;5039482;28;20188;-77
2022/05/05 05:11:28;;;;;;;11.33;9.70;;;14.70;99.90;;;;;;5039649;28;20170;-77
2022/05/05 05:13:54;;;;;;;9.30;8.50;;;14.70;99.90;;;;;;5054570;28;20200;-77
2022/05/05 05:16:20;;;;;;;9.60;8.80;;;14.70;99.90;;;;;;5059257;28;20168;-77
2022/05/05 05:18:47;;;;;;;10.27;8.63;;;14.80;99.90;;;;;;5055074;28;20188;-77
2022/05/05 05:21:12;;;;;;;11.10;8.70;;;15.00;99.90;;;;;;5056795;28;20564;-77
2022/05/05 05:23:38;;;;;;;11.57;10.47;;;15.00;99.90;;;;;;5056557;28;20424;-77
2022/05/05 05:26:04;;;;;;;10.43;9.53;;;15.00;99.90;;;;;;5057004;28;20173;-77
2022/05/05 05:28:29;;;;;;;11.17;10.27;;;14.90;99.90;;;;;;5057033;28;20647;-77
2022/05/05 05:30:55;;;;;;;14.03;12.63;;;14.90;99.90;;;;;;5056460;28;20195;-78
2022/05/05 05:33:21;;;;;;;13.60;12.50;;;15.10;99.90;;;;;;5054953;28;20193;-77
2022/05/05 05:35:46;;;;;;;14.63;13.20;;;15.10;99.90;;;;;;5055612;28;20173;-77
2022/05/05 05:38:13;;;;;;;11.10;10.10;;;15.30;99.90;;;;;;5055899;28;20175;-77
2022/05/05 05:40:39;;;;;;;12.57;11.37;;;15.30;99.90;;;;;;5055905;28;20268;-77
2022/05/05 05:43:05;;;;;;;13.13;11.93;;;15.30;99.90;;;;;;5057739;28;20444;-77
2022/05/05 05:45:31;;;;;;;12.27;11.07;;;15.30;99.90;;;;;;5056783;28;20398;-77
2022/05/05 05:47:56;;;;;;;16.00;12.07;;;15.30;99.90;;;;;;5053982;28;20663;-76
2022/05/05 05:50:22;;;;;;;15.63;14.23;;;15.30;99.90;;;;;;5056369;28;20193;-77
2022/05/05 05:52:48;;;;;;;15.90;14.40;;;15.20;99.90;;;;;;5055186;28;20712;-77
2022/05/05 05:55:15;;;;;;;12.20;11.10;;;15.20;99.90;;;;;;5055328;28;20196;-77
2022/05/05 05:57:40;;;;;;;12.00;11.00;;;15.10;99.90;;;;;;5030689;28;20976;-76
2022/05/05 06:00:07;;;;;;;12.77;11.50;;;15.10;99.90;;;;;;5031975;28;20619;-77
2022/05/05 06:05:17;;;;;;;12.70;11.57;;;15.40;99.90;;;;;;5035652;28;20384;-77
2022/05/05 06:07:44;;;;;;;16.17;14.40;;;15.50;99.90;;;;;;5035212;28;20779;-76
2022/05/05 06:10:10;;;;;;;14.40;13.20;;;15.50;99.90;;;;;;5034889;28;20430;-77
2022/05/05 06:12:35;;;;;;;12.03;10.97;;;15.50;99.90;;;;;;5034512;28;20925;-77
2022/05/05 06:15:01;;;;;;;15.73;14.40;;;15.60;99.90;;;;;;5035054;28;20258;-77
2022/05/05 06:17:26;;;;;;;15.07;13.70;;;15.70;99.90;;;;;;5034704;28;20224;-77
2022/05/05 06:19:52;;;;;;;15.47;14.03;;;15.70;99.90;;;;;;5033799;28;20712;-77
2022/05/05 06:22:17;;;;;;;16.87;15.30;;;15.70;99.90;;;;;;5035406;28;20169;-77
2022/05/05 06:24:43;;;;;;;12.43;11.20;;;15.70;99.90;;;;;;5034990;28;20196;-77
2022/05/05 06:27:09;;;;;;;13.07;11.97;;;15.50;99.90;;;;;;5034326;28;20543;-76
2022/05/05 06:29:34;;;;;;;15.40;12.93;;;15.60;99.90;;;;;;5034174;28;20264;-76
2022/05/05 06:32:00;;;;;;;14.70;12.40;;;15.60;99.90;;;;;;5034472;28;20558;-76
2022/05/05 06:34:25;;;;;;;15.93;14.27;;;15.60;99.90;;;;;;5032573;28;20231;-77
2022/05/05 06:36:51;;;;;;;15.83;14.23;;;15.50;99.90;;;;;;5033157;28;20271;-77
2022/05/05 06:39:16;;;;;;;14.10;12.80;;;15.50;99.90;;;;;;5034248;28;20604;-77
2022/05/05 06:41:42;;;;;;;13.90;12.40;;;15.60;99.90;;;;;;5034327;28;20171;-77
2022/05/05 06:44:08;;;;;;;13.53;11.93;;;15.10;99.90;;;;;;5051466;28;20167;-76
2022/05/05 06:46:34;;;;;;;14.50;13.10;;;14.80;99.90;;;;;;5052260;28;20498;-73
2022/05/05 06:48:59;;;;;;;13.90;12.60;;;14.90;99.90;;;;;;5053643;28;20192;-74
2022/05/05 06:51:25;;;;;;;13.00;11.87;;;15.10;99.90;;;;;;5054170;28;20632;-75
2022/05/05 06:53:51;;;;;;;15.20;13.60;;;15.20;99.90;;;;;;5054186;28;20170;-74
2022/05/05 06:56:16;;;;;;;13.30;11.83;;;15.50;99.90;;;;;;5052668;28;20167;-78
2022/05/05 06:58:45;;;;;;;14.73;13.30;;;15.80;99.90;;;;;;5053801;28;20427;-73
2022/05/05 07:06:38;;;;;;;13.83;12.23;;;15.60;99.90;;;;;;5054159;28;20757;-75
2022/05/05 07:11:48;;;;;;;13.03;11.67;;;15.40;99.90;;;;;;5053860;28;20671;-73
2022/05/05 07:14:15;;;;;;;11.53;10.37;;;15.50;99.90;;;;;;5052275;28;20414;-73
2022/05/05 07:16:41;;;;;;;13.43;12.20;;;15.40;99.90;;;;;;5053533;28;20173;-72
2022/05/05 07:19:07;;;;;;;12.07;10.83;;;15.70;99.90;;;;;;5053214;28;20446;-74
2022/05/05 07:21:33;;;;;;;13.80;12.10;;;15.70;99.90;;;;;;5053900;28;20481;-73
2022/05/05 07:23:58;;;;;;;11.80;10.60;;;15.80;99.90;;;;;;5053948;28;20161;-75
2022/05/05 07:26:24;;;;;;;12.27;11.07;;;15.50;99.90;;;;;;5054067;28;20292;-71
2022/05/05 07:28:49;;;;;;;11.70;10.50;;;15.50;99.90;;;;;;5053340;28;20226;-72
2022/05/05 07:31:17;;;;;;;13.00;11.63;;;15.60;99.90;;;;;;5053700;28;20169;-73
2022/05/05 07:33:43;;;;;;;11.67;10.53;;;15.30;99.90;;;;;;5052825;28;20539;-73
2022/05/05 07:36:08;;;;;;;12.30;11.10;;;15.20;99.90;;;;;;5053431;28;20404;-74
2022/05/05 07:38:35;;;;;;;12.17;11.07;;;15.10;99.90;;;;;;5053297;28;20237;-74
2022/05/05 07:41:01;;;;;;;12.60;11.30;;;15.30;99.90;;;;;;5053034;28;20576;-75
2022/05/05 07:43:26;;;;;;;12.80;11.60;;;15.40;99.90;;;;;;5053450;28;20409;-74
2022/05/05 07:45:52;;;;;;;13.27;11.83;;;15.30;99.90;;;;;;5052321;28;20181;-74
2022/05/05 07:48:19;;;;;;;12.73;11.60;;;15.40;99.90;;;;;;5052728;28;20201;-75
2022/05/05 07:50:47;;;;;;;11.90;10.80;;;15.60;99.90;;;;;;5053359;28;20551;-74
2022/05/05 07:53:13;;;;;;;11.70;10.70;;;15.50;99.90;;;;;;5052920;28;20443;-75
2022/05/05 07:55:38;;;;;;;14.97;11.80;;;15.40;99.90;;;;;;5053020;28;20405;-75
2022/05/05 07:58:04;;;;;;;13.33;12.13;;;15.70;99.90;;;;;;5053020;28;20894;-75
2022/05/05 08:00:30;;;;;;;12.50;11.30;;;15.80;99.90;;;;;;5053183;28;20284;-72
2022/05/05 08:02:55;;;;;;;13.03;11.83;;;15.90;99.90;;;;;;5053001;28;20164;-73
2022/05/05 08:05:21;;;;;;;12.80;11.60;;;15.90;99.90;;;;;;5052778;28;20174;-75
2022/05/05 08:07:49;;;;;;;13.50;12.30;;;15.70;99.90;;;;;;5052871;28;20699;-75
2022/05/05 08:10:16;;;;;;;12.43;11.30;;;16.00;99.90;;;;;;5049874;28;20186;-74
2022/05/05 08:12:42;;;;;;;14.13;12.73;;;15.70;99.90;;;;;;5038027;28;20467;-74
2022/05/05 08:15:08;;;;;;;14.10;12.90;;;16.00;99.90;;;;;;5052843;28;20818;-75
2022/05/05 08:17:34;;;;;;;13.37;12.17;;;15.80;99.90;;;;;;5052801;28;20200;-75
2022/05/05 08:20:02;;;;;;;14.83;13.53;;;15.60;99.90;;;;;;5051984;28;20428;-75
2022/05/05 08:22:28;;;;;;;13.87;12.67;;;15.50;99.90;;;;;;5051471;28;20947;-74
2022/05/05 08:30:21;;;;;;;14.47;13.10;;;15.40;99.90;;;;;;5087928;22;20589;-74
2022/05/05 08:32:47;;;;;;;12.97;11.87;;;15.20;99.90;;;;;;5072922;28;20536;-71
2022/05/05 08:35:12;;;;;;;14.13;12.83;;;15.20;99.90;;;;;;5072729;28;20172;-71
2022/05/05 08:37:38;;;;;;;15.83;14.33;;;15.40;99.90;;;;;;5072114;28;20256;-72
2022/05/05 08:40:05;;;;;;;14.60;13.20;;;15.70;99.90;;;;;;5072945;28;20276;-71
2022/05/05 08:42:31;;;;;;;17.30;14.23;;;15.80;99.90;;;;;;5073757;28;20679;-72
2022/05/05 08:44:58;;;;;;;15.67;14.23;;;15.80;99.90;;;;;;5071720;28;20513;-72
2022/05/05 08:47:26;;;;;;;15.23;13.67;;;16.10;99.90;;;;;;5073716;28;20166;-72
2022/05/05 08:49:57;;;;;;;17.37;15.70;;;16.30;99.90;;;;;;5069362;28;20446;-73
2022/05/05 08:52:25;;;;;;;16.40;14.90;;;16.30;99.90;;;;;;5065536;28;20885;-73
2022/05/05 08:54:50;;;;;;;16.00;14.53;;;16.10;99.90;;;;;;5075792;28;20408;-74
2022/05/05 08:57:16;;;;;;;15.40;14.00;;;16.30;99.90;;;;;;5076881;28;20407;-74
2022/05/05 08:59:42;;;;;;;15.57;14.27;;;16.40;99.90;;;;;;5076736;28;20567;-74
2022/05/05 09:02:07;;;;;;;17.50;15.90;;;16.30;99.90;;;;;;5077267;28;20256;-74
2022/05/05 09:04:33;;;;;;;18.17;16.67;;;16.20;99.90;;;;;;5076835;28;20219;-74
2022/05/05 09:06:59;;;;;;;20.00;18.03;;;16.40;99.90;;;;;;5077006;28;20162;-73
2022/05/05 09:09:25;;;;;;;21.50;19.50;;;16.20;99.90;;;;;;5084764;28;20194;-72
2022/05/05 09:12:17;;;;;;;19.77;18.17;;;16.10;99.90;;;;;;5083262;28;20458;-73
2022/05/05 09:14:53;;;;;;;22.87;20.77;;;16.30;99.90;;;;;;5083711;28;20389;-72
2022/05/05 09:17:24;;;;;;;21.60;19.50;;;16.60;99.90;;;;;;5082450;28;20427;-73
2022/05/05 09:19:52;;;;;;;19.70;18.10;;;16.80;99.90;;;;;;5090082;28;20424;-71
2022/05/05 09:22:24;;;;;;;23.33;19.40;;;17.00;99.90;;;;;;5086477;28;20428;-74
2022/05/05 09:24:52;;;;;;;21.30;19.00;;;16.80;99.90;;;;;;5083790;28;20465;-70
2022/05/05 09:27:32;;;;;;;20.33;18.53;;;16.50;99.90;;;;;;5087676;28;20451;-72
2022/05/05 09:29:59;;;;;;;21.67;19.77;;;16.20;99.90;;;;;;5080818;28;20488;-72
2022/05/05 09:32:34;;;;;;;20.43;18.73;;;16.20;99.90;;;;;;5079171;28;20945;-73
2022/05/05 09:35:21;;;;;;;20.23;18.53;;;16.00;99.90;;;;;;5075115;28;20384;-72
2022/05/05 09:37:49;;;;;;;22.37;20.27;;;16.10;99.90;;;;;;5074769;28;20488;-72
2022/05/05 09:40:23;;;;;;;22.77;20.67;;;15.80;99.90;;;;;;5074983;28;20912;-72
2022/05/05 09:42:53;;;;;;;22.87;20.67;;;15.40;99.90;;;;;;5074009;28;20424;-74
2022/05/05 09:45:29;;;;;;;23.47;21.37;;;15.80;99.90;;;;;;5074975;28;20541;-74
2022/05/05 09:47:58;;;;;;;23.30;20.97;;;16.10;99.90;;;;;;5074344;28;20450;-73
2022/05/05 09:50:25;;;;;;;20.73;18.83;;;16.30;99.90;;;;;;5074980;28;20490;-74
2022/05/05 09:58:23;;;;;;;22.47;20.57;;;16.40;99.90;;;;;;5073874;28;20986;-77
2022/05/05 10:01:04;;;;;;;21.03;19.27;;;16.80;99.90;;;;;;5074252;28;20427;-72
2022/05/05 10:04:06;;;;;;;22.50;20.57;;;17.00;99.90;;;;;;5073288;28;20796;-72
2022/05/05 10:06:34;;;;;;;20.30;18.50;;;16.80;99.90;;;;;;5070654;28;20799;-73
2022/05/05 10:09:10;;;;;;;22.50;20.47;;;17.00;99.90;;;;;;5055704;28;20427;-73
2022/05/05 10:11:36;;;;;;;18.70;17.20;;;17.20;99.90;;;;;;5074449;28;20391;-72
2022/05/05 10:14:04;;;;;;;22.47;20.10;;;17.40;99.90;;;;;;5074129;28;20415;-74
2022/05/05 10:16:31;;;;;;;23.67;21.60;;;17.20;99.90;;;;;;5074255;28;20177;-74
2022/05/05 10:18:59;;;;;;;22.57;20.33;;;17.20;99.90;;;;;;5072905;28;20419;-74
2022/05/05 10:21:28;;;;;;;22.13;20.13;;;17.10;99.90;;;;;;5074026;28;20396;-72
2022/05/05 10:24:16;;;;;;;23.97;21.90;;;17.30;99.90;;;;;;5074085;28;20424;-72
2022/05/05 10:26:47;;;;;;;23.73;21.70;;;17.40;99.90;;;;;;5074320;28;20691;-72
2022/05/05 10:29:31;;;;;;;23.90;21.80;;;17.10;99.90;;;;;;5073728;28;20905;-72
2022/05/05 10:32:10;;;;;;;23.33;21.33;;;17.30;99.90;;;;;;5074075;28;20574;-69
2022/05/05 10:34:40;;;;;;;24.10;21.93;;;17.80;99.90;;;;;;5073240;28;20412;-70
2022/05/05 10:37:07;;;;;;;24.03;21.83;;;17.80;99.90;;;;;;5074222;28;20392;-71
2022/05/05 10:39:44;;;;;;;22.27;20.17;;;17.70;99.90;;;;;;5073273;28;20966;-71
2022/05/05 10:42:40;;;;;;;22.30;20.40;;;17.50;99.90;;;;;;5073635;28;20389;-70
2022/05/05 10:45:12;;;;;;;23.40;21.00;;;17.50;99.90;;;;;;5073014;28;20499;-69
2022/05/05 10:47:55;;;;;;;22.90;20.77;;;17.50;99.90;;;;;;5073652;28;20403;-71
2022/05/05 10:50:54;;;;;;;26.87;24.47;;;17.70;99.90;;;;;;5073221;28;20525;-70
2022/05/05 10:53:30;;;;;;;23.70;21.40;;;17.90;99.90;;;;;;5073562;28;20994;-70
2022/05/05 10:55:57;;;;;;;21.50;19.60;;;18.20;99.90;;;;;;5072507;28;20507;-70
2022/05/05 10:59:02;;;;;;;22.93;20.83;;;18.30;99.90;;;;;;5074087;28;20412;-71
2022/05/05 11:01:31;;;;;;;25.17;22.87;;;18.00;99.90;;;;;;5072529;28;20412;-70
2022/05/05 11:04:15;;;;;;;26.50;24.03;;;17.10;99.90;;;;;;5073672;28;20404;-70
2022/05/05 11:06:45;;;;;;;26.70;24.43;;;17.20;99.90;;;;;;5072085;28;20422;-70
2022/05/05 11:09:30;;;;;;;23.20;21.30;;;17.50;99.90;;;;;;5072979;28;20387;-72
2022/05/05 11:12:22;;;;;;;23.03;21.10;;;17.70;99.90;;;;;;5072993;28;20454;-71
2022/05/05 11:23:41;;;;;;;27.37;24.80;;;17.20;99.90;;;;;;5073144;28;20822;-72
2022/05/05 11:26:07;;;;;;;28.50;26.00;;;17.20;99.90;;;;;;5072531;28;20438;-74
2022/05/05 11:28:32;;;;;;;26.53;24.23;;;17.40;99.90;;;;;;5072898;28;20392;-71
2022/05/05 11:30:58;;;;;;;25.90;23.60;;;17.30;99.90;;;;;;5071354;28;20451;-71
2022/05/05 11:33:24;;;;;;;23.10;21.00;;;17.00;99.90;;;;;;5072645;28;20190;-72
2022/05/05 11:35:57;;;;;;;26.70;24.40;;;16.90;99.90;;;;;;5071745;28;20207;-72
2022/05/05 11:38:24;;;;;;;25.90;23.50;;;16.90;99.90;;;;;;5073409;28;20162;-72
2022/05/05 11:41:04;;;;;;;26.93;24.53;;;17.00;99.90;;;;;;5053449;28;20527;-70
2022/05/05 11:46:17;;;;;;;25.53;23.33;;;17.10;99.90;;;;;;5062122;28;20480;-74
2022/05/05 11:48:43;;;;;;;29.40;26.57;;;16.90;99.90;;;;;;5073312;28;20405;-72
2022/05/05 11:51:10;;;;;;;27.40;24.93;;;16.70;99.90;;;;;;5072123;28;20436;-72
2022/05/05 11:53:36;;;;;;;29.40;26.70;;;16.70;99.90;;;;;;5072573;28;20447;-72
2022/05/05 11:56:03;;;;;;;24.30;21.77;;;16.40;99.90;;;;;;5071026;28;20418;-72
2022/05/05 12:04:03;;;;;;;30.43;27.93;;;16.80;99.90;;;;;;5071877;28;20496;-71
2022/05/05 12:06:29;;;;;;;29.50;26.50;;;16.90;99.90;;;;;;5072861;28;20472;-72
2022/05/05 12:08:58;;;;;;;27.73;25.23;;;17.00;99.90;;;;;;5071388;28;20424;-71
2022/05/05 12:11:28;;;;;;;28.87;25.90;;;17.00;99.90;;;;;;5067556;28;20470;-71
2022/05/05 12:14:07;;;;;;;27.90;25.27;;;16.80;99.90;;;;;;5063986;28;20456;-71
2022/05/05 12:16:37;;;;;;;29.20;26.07;;;16.80;99.90;;;;;;5053308;28;20523;-71
2022/05/05 12:19:11;;;;;;;27.97;25.27;;;16.60;99.90;;;;;;5071788;28;20400;-70
2022/05/05 12:21:38;;;;;;;28.60;25.60;;;16.50;99.90;;;;;;5071294;28;20798;-70
2022/05/05 12:24:04;;;;;;;30.67;27.60;;;16.60;99.90;;;;;;5051835;28;20409;-72
2022/05/05 12:26:32;;;;;;;29.83;27.07;;;16.50;99.90;;;;;;5069529;28;20403;-74
2022/05/05 12:29:01;;;;;;;29.00;26.00;;;16.40;99.90;;;;;;5055486;28;20479;-73
2022/05/05 12:31:29;;;;;;;27.73;25.13;;;16.50;99.90;;;;;;5056121;28;20393;-75
2022/05/05 12:33:56;;;;;;;29.93;27.23;;;16.50;99.90;;;;;;5055310;28;20455;-72
2022/05/05 12:36:28;;;;;;;29.73;26.83;;;16.50;99.90;;;;;;5055178;28;20413;-74
2022/05/05 12:39:12;;;;;;;31.67;28.43;;;16.70;99.90;;;;;;5055448;28;20397;-72
2022/05/05 12:41:55;;;;;;;29.53;26.77;;;17.00;99.90;;;;;;5055376;28;20397;-73
2022/05/05 12:44:22;;;;;;;29.27;26.33;;;16.80;99.90;;;;;;5055499;28;20391;-74
2022/05/05 12:47:00;;;;;;;29.13;26.20;;;16.70;99.90;;;;;;5072733;28;20423;-72
2022/05/05 12:49:36;;;;;;;30.43;27.43;;;16.70;99.90;;;;;;5075870;28;20488;-72
2022/05/05 12:52:04;;;;;;;32.90;29.70;;;17.00;99.90;;;;;;5076434;28;20805;-71
2022/05/05 12:59:57;;;;;;;29.03;26.13;;;17.60;99.90;;;;;;5074638;28;20863;-73
2022/05/05 13:02:23;;;;;;;29.37;24.10;;;17.40;99.90;;;;;;5074693;28;20503;-72
2022/05/05 13:04:49;;;;;;;25.30;22.87;;;17.30;99.90;;;;;;5056491;28;20539;-71
2022/05/05 13:07:15;;;;;;;27.63;24.93;;;17.40;99.90;;;;;;5075098;28;20535;-70
2022/05/05 13:09:41;;;;;;;27.47;24.20;;;17.20;99.90;;;;;;5075015;28;20641;-72
2022/05/05 13:12:07;;;;;;;31.87;26.97;;;17.30;99.90;;;;;;5074170;28;20742;-72
2022/05/05 13:14:32;;;;;;;28.30;25.30;;;17.30;99.90;;;;;;5074163;28;20327;-70
2022/05/05 13:16:59;;;;;;;30.40;26.90;;;17.40;99.90;;;;;;5074952;28;20458;-72
2022/05/05 13:19:25;;;;;;;26.77;24.00;;;17.60;99.90;;;;;;5074277;28;20841;-70
2022/05/05 13:21:51;;;;;;;28.23;25.03;;;17.70;99.90;;;;;;5074839;28;20403;-71
2022/05/05 13:24:17;;;;;;;26.50;23.90;;;17.90;99.90;;;;;;5074616;28;20396;-71
2022/05/05 13:26:45;;;;;;;26.40;23.90;;;18.10;99.90;;;;;;5075476;28;20408;-72
2022/05/05 13:29:11;;;;;;;26.57;23.70;;;18.60;99.90;;;;;;5073826;28;20396;-72
2022/05/05 13:31:37;;;;;;;23.23;21.00;;;19.00;99.90;;;;;;5073311;28;20400;-71
2022/05/05 13:34:03;;;;;;;23.50;21.27;;;18.90;99.90;;;;;;5073161;28;20205;-71